sensor_id;sensor_type;location;lat;lon;timestamp;temperature;humidity
32296;DHT22;18781;51.550;5.418;2023-08-08T00:02:14;17.80;64.80
32296;DHT22;18781;51.550;5.418;2023-08-08T00:04:40;17.80;64.80
32296;DHT22;18781;51.550;5.418;2023-08-08T00:07:05;17.80;64.90
32296;DHT22;18781;51.550;5.418;2023-08-08T00:09:31;17.80;64.90
32296;DHT22;18781;51.550;5.418;2023-08-08T00:11:57;17.80;65.00
32296;DHT22;18781;51.550;5.418;2023-08-08T00:14:23;17.70;65.10
32296;DHT22;18781;51.550;5.418;2023-08-08T00:16:49;17.70;65.20
32296;DHT22;18781;51.550;5.418;2023-08-08T00:19:15;17.70;65.30
32296;DHT22;18781;51.550;5.418;2023-08-08T00:21:40;17.70;65.30
32296;DHT22;18781;51.550;5.418;2023-08-08T00:24:06;17.70;65.40
32296;DHT22;18781;51.550;5.418;2023-08-08T00:26:32;17.70;65.40
32296;DHT22;18781;51.550;5.418;2023-08-08T00:28:57;17.70;65.50
32296;DHT22;18781;51.550;5.418;2023-08-08T00:31:23;17.70;65.60
32296;DHT22;18781;51.550;5.418;2023-08-08T00:33:48;17.70;65.60
32296;DHT22;18781;51.550;5.418;2023-08-08T00:36:14;17.70;65.70
32296;DHT22;18781;51.550;5.418;2023-08-08T00:38:39;17.70;65.80
32296;DHT22;18781;51.550;5.418;2023-08-08T00:41:05;17.60;65.80
32296;DHT22;18781;51.550;5.418;2023-08-08T00:43:30;17.60;65.80
32296;DHT22;18781;51.550;5.418;2023-08-08T00:45:57;17.70;65.90
32296;DHT22;18781;51.550;5.418;2023-08-08T00:48:23;17.60;65.90
32296;DHT22;18781;51.550;5.418;2023-08-08T00:50:50;17.60;66.10
32296;DHT22;18781;51.550;5.418;2023-08-08T00:53:16;17.60;66.30
32296;DHT22;18781;51.550;5.418;2023-08-08T00:55:43;17.70;66.30
32296;DHT22;18781;51.550;5.418;2023-08-08T00:58:09;17.70;66.30
32296;DHT22;18781;51.550;5.418;2023-08-08T01:00:35;17.60;66.20
32296;DHT22;18781;51.550;5.418;2023-08-08T01:03:01;17.60;66.10
32296;DHT22;18781;51.550;5.418;2023-08-08T01:05:33;17.70;66.20
32296;DHT22;18781;51.550;5.418;2023-08-08T01:08:04;17.60;66.40
32296;DHT22;18781;51.550;5.418;2023-08-08T01:10:39;17.70;66.50
32296;DHT22;18781;51.550;5.418;2023-08-08T01:13:08;17.60;66.60
32296;DHT22;18781;51.550;5.418;2023-08-08T01:15:36;17.60;66.60
32296;DHT22;18781;51.550;5.418;2023-08-08T01:18:07;17.60;66.60
32296;DHT22;18781;51.550;5.418;2023-08-08T01:20:33;17.60;66.90
32296;DHT22;18781;51.550;5.418;2023-08-08T01:23:19;17.60;66.80
32296;DHT22;18781;51.550;5.418;2023-08-08T01:25:49;17.70;67.30
32296;DHT22;18781;51.550;5.418;2023-08-08T01:28:15;17.70;66.70
32296;DHT22;18781;51.550;5.418;2023-08-08T01:30:41;17.70;66.90
32296;DHT22;18781;51.550;5.418;2023-08-08T01:33:08;17.70;67.00
32296;DHT22;18781;51.550;5.418;2023-08-08T01:35:37;17.70;67.60
32296;DHT22;18781;51.550;5.418;2023-08-08T01:38:17;17.70;67.30
32296;DHT22;18781;51.550;5.418;2023-08-08T01:40:45;17.70;67.70
32296;DHT22;18781;51.550;5.418;2023-08-08T01:43:12;17.70;67.10
32296;DHT22;18781;51.550;5.418;2023-08-08T01:45:39;17.70;67.10
32296;DHT22;18781;51.550;5.418;2023-08-08T01:48:09;17.70;67.20
32296;DHT22;18781;51.550;5.418;2023-08-08T01:50:35;17.70;67.60
32296;DHT22;18781;51.550;5.418;2023-08-08T01:53:01;17.70;67.50
32296;DHT22;18781;51.550;5.418;2023-08-08T01:55:27;17.70;67.70
32296;DHT22;18781;51.550;5.418;2023-08-08T01:57:52;17.70;67.60
32296;DHT22;18781;51.550;5.418;2023-08-08T02:00:18;17.70;67.60
32296;DHT22;18781;51.550;5.418;2023-08-08T02:02:44;17.70;67.70
32296;DHT22;18781;51.550;5.418;2023-08-08T02:05:09;17.70;67.80
32296;DHT22;18781;51.550;5.418;2023-08-08T02:07:35;17.80;67.90
32296;DHT22;18781;51.550;5.418;2023-08-08T02:10:01;17.80;67.90
32296;DHT22;18781;51.550;5.418;2023-08-08T02:12:26;17.70;67.90
32296;DHT22;18781;51.550;5.418;2023-08-08T02:14:54;17.70;67.90
32296;DHT22;18781;51.550;5.418;2023-08-08T02:17:20;17.70;67.80
32296;DHT22;18781;51.550;5.418;2023-08-08T02:19:46;17.70;67.90
32296;DHT22;18781;51.550;5.418;2023-08-08T02:22:12;17.70;67.90
32296;DHT22;18781;51.550;5.418;2023-08-08T02:24:37;17.70;67.90
32296;DHT22;18781;51.550;5.418;2023-08-08T02:27:03;17.70;68.00
32296;DHT22;18781;51.550;5.418;2023-08-08T02:29:29;17.70;68.20
32296;DHT22;18781;51.550;5.418;2023-08-08T02:31:55;17.70;68.20
32296;DHT22;18781;51.550;5.418;2023-08-08T02:34:21;17.70;68.30
32296;DHT22;18781;51.550;5.418;2023-08-08T02:36:46;17.70;68.40
32296;DHT22;18781;51.550;5.418;2023-08-08T02:39:12;17.60;68.40
32296;DHT22;18781;51.550;5.418;2023-08-08T02:41:37;17.60;68.30
32296;DHT22;18781;51.550;5.418;2023-08-08T02:44:03;17.60;68.40
32296;DHT22;18781;51.550;5.418;2023-08-08T02:46:28;17.60;68.60
32296;DHT22;18781;51.550;5.418;2023-08-08T02:48:54;17.60;68.60
32296;DHT22;18781;51.550;5.418;2023-08-08T02:51:19;17.70;68.80
32296;DHT22;18781;51.550;5.418;2023-08-08T02:53:45;17.60;68.80
32296;DHT22;18781;51.550;5.418;2023-08-08T02:56:11;17.60;68.80
32296;DHT22;18781;51.550;5.418;2023-08-08T02:58:36;17.60;68.80
32296;DHT22;18781;51.550;5.418;2023-08-08T03:01:02;17.60;68.90
32296;DHT22;18781;51.550;5.418;2023-08-08T03:03:28;17.60;69.00
32296;DHT22;18781;51.550;5.418;2023-08-08T03:05:53;17.60;69.10
32296;DHT22;18781;51.550;5.418;2023-08-08T03:08:19;17.60;69.10
32296;DHT22;18781;51.550;5.418;2023-08-08T03:10:44;17.60;69.20
32296;DHT22;18781;51.550;5.418;2023-08-08T03:13:10;17.60;69.20
32296;DHT22;18781;51.550;5.418;2023-08-08T03:15:36;17.60;69.30
32296;DHT22;18781;51.550;5.418;2023-08-08T03:18:02;17.60;69.50
32296;DHT22;18781;51.550;5.418;2023-08-08T03:20:28;17.60;69.60
32296;DHT22;18781;51.550;5.418;2023-08-08T03:22:54;17.60;69.70
32296;DHT22;18781;51.550;5.418;2023-08-08T03:25:19;17.50;69.70
32296;DHT22;18781;51.550;5.418;2023-08-08T03:27:45;17.50;69.70
32296;DHT22;18781;51.550;5.418;2023-08-08T03:30:11;17.50;69.80
32296;DHT22;18781;51.550;5.418;2023-08-08T03:32:37;17.50;70.00
32296;DHT22;18781;51.550;5.418;2023-08-08T03:35:02;17.50;70.10
32296;DHT22;18781;51.550;5.418;2023-08-08T03:37:29;17.50;70.10
32296;DHT22;18781;51.550;5.418;2023-08-08T03:39:54;17.50;70.10
32296;DHT22;18781;51.550;5.418;2023-08-08T03:42:20;17.50;70.20
32296;DHT22;18781;51.550;5.418;2023-08-08T03:44:45;17.50;70.30
32296;DHT22;18781;51.550;5.418;2023-08-08T03:47:11;17.50;70.40
32296;DHT22;18781;51.550;5.418;2023-08-08T03:49:37;17.50;70.40
32296;DHT22;18781;51.550;5.418;2023-08-08T03:52:03;17.50;70.40
32296;DHT22;18781;51.550;5.418;2023-08-08T03:54:29;17.50;70.50
32296;DHT22;18781;51.550;5.418;2023-08-08T03:56:54;17.50;70.50
32296;DHT22;18781;51.550;5.418;2023-08-08T03:59:20;17.50;70.40
32296;DHT22;18781;51.550;5.418;2023-08-08T04:01:45;17.50;70.40
32296;DHT22;18781;51.550;5.418;2023-08-08T04:04:11;17.50;70.40
32296;DHT22;18781;51.550;5.418;2023-08-08T04:06:36;17.50;70.50
32296;DHT22;18781;51.550;5.418;2023-08-08T04:09:02;17.50;70.50
32296;DHT22;18781;51.550;5.418;2023-08-08T04:11:28;17.50;70.50
32296;DHT22;18781;51.550;5.418;2023-08-08T04:13:54;17.50;70.50
32296;DHT22;18781;51.550;5.418;2023-08-08T04:16:19;17.50;70.50
32296;DHT22;18781;51.550;5.418;2023-08-08T04:18:45;17.40;70.60
32296;DHT22;18781;51.550;5.418;2023-08-08T04:21:10;17.40;70.60
32296;DHT22;18781;51.550;5.418;2023-08-08T04:23:36;17.40;70.60
32296;DHT22;18781;51.550;5.418;2023-08-08T04:26:02;17.40;70.60
32296;DHT22;18781;51.550;5.418;2023-08-08T04:28:28;17.40;70.70
32296;DHT22;18781;51.550;5.418;2023-08-08T04:30:53;17.40;70.80
32296;DHT22;18781;51.550;5.418;2023-08-08T04:33:19;17.40;71.00
32296;DHT22;18781;51.550;5.418;2023-08-08T04:35:44;17.40;71.00
32296;DHT22;18781;51.550;5.418;2023-08-08T04:38:10;17.40;70.90
32296;DHT22;18781;51.550;5.418;2023-08-08T04:40:35;17.30;71.00
32296;DHT22;18781;51.550;5.418;2023-08-08T04:43:01;17.30;71.00
32296;DHT22;18781;51.550;5.418;2023-08-08T04:45:27;17.30;71.10
32296;DHT22;18781;51.550;5.418;2023-08-08T04:47:55;17.30;71.10
32296;DHT22;18781;51.550;5.418;2023-08-08T04:50:21;17.30;71.20
32296;DHT22;18781;51.550;5.418;2023-08-08T04:52:46;17.30;71.30
32296;DHT22;18781;51.550;5.418;2023-08-08T04:55:12;17.30;71.30
32296;DHT22;18781;51.550;5.418;2023-08-08T04:57:37;17.30;71.50
32296;DHT22;18781;51.550;5.418;2023-08-08T05:00:03;17.20;71.40
32296;DHT22;18781;51.550;5.418;2023-08-08T05:02:31;17.20;71.40
32296;DHT22;18781;51.550;5.418;2023-08-08T05:04:57;17.30;71.40
32296;DHT22;18781;51.550;5.418;2023-08-08T05:07:22;17.30;71.40
32296;DHT22;18781;51.550;5.418;2023-08-08T05:09:48;17.30;71.50
32296;DHT22;18781;51.550;5.418;2023-08-08T05:12:14;17.20;71.50
32296;DHT22;18781;51.550;5.418;2023-08-08T05:14:39;17.20;71.70
32296;DHT22;18781;51.550;5.418;2023-08-08T05:17:05;17.30;71.70
32296;DHT22;18781;51.550;5.418;2023-08-08T05:19:30;17.20;71.60
32296;DHT22;18781;51.550;5.418;2023-08-08T05:21:56;17.30;72.30
32296;DHT22;18781;51.550;5.418;2023-08-08T05:24:21;17.20;71.70
32296;DHT22;18781;51.550;5.418;2023-08-08T05:26:47;17.20;71.80
32296;DHT22;18781;51.550;5.418;2023-08-08T05:29:13;17.20;71.80
32296;DHT22;18781;51.550;5.418;2023-08-08T05:31:38;17.20;71.80
32296;DHT22;18781;51.550;5.418;2023-08-08T05:34:04;17.20;71.90
32296;DHT22;18781;51.550;5.418;2023-08-08T05:36:29;17.20;72.00
32296;DHT22;18781;51.550;5.418;2023-08-08T05:38:55;17.30;72.10
32296;DHT22;18781;51.550;5.418;2023-08-08T05:41:21;17.30;72.20
32296;DHT22;18781;51.550;5.418;2023-08-08T05:43:46;17.20;72.30
32296;DHT22;18781;51.550;5.418;2023-08-08T05:46:12;17.30;72.40
32296;DHT22;18781;51.550;5.418;2023-08-08T05:48:37;17.30;72.50
32296;DHT22;18781;51.550;5.418;2023-08-08T05:51:03;17.30;72.60
32296;DHT22;18781;51.550;5.418;2023-08-08T05:53:30;17.30;72.60
32296;DHT22;18781;51.550;5.418;2023-08-08T05:55:57;17.40;72.80
32296;DHT22;18781;51.550;5.418;2023-08-08T05:58:22;17.40;72.80
32296;DHT22;18781;51.550;5.418;2023-08-08T06:00:48;17.40;72.90
32296;DHT22;18781;51.550;5.418;2023-08-08T06:03:13;17.40;72.90
32296;DHT22;18781;51.550;5.418;2023-08-08T06:05:39;17.50;72.90
32296;DHT22;18781;51.550;5.418;2023-08-08T06:08:05;17.50;72.90
32296;DHT22;18781;51.550;5.418;2023-08-08T06:10:33;17.50;73.00
32296;DHT22;18781;51.550;5.418;2023-08-08T06:13:00;17.60;73.20
32296;DHT22;18781;51.550;5.418;2023-08-08T06:15:25;17.60;73.00
32296;DHT22;18781;51.550;5.418;2023-08-08T06:17:51;17.60;72.80
32296;DHT22;18781;51.550;5.418;2023-08-08T06:20:16;17.60;72.70
32296;DHT22;18781;51.550;5.418;2023-08-08T06:22:42;17.60;72.70
32296;DHT22;18781;51.550;5.418;2023-08-08T06:25:08;17.70;72.70
32296;DHT22;18781;51.550;5.418;2023-08-08T06:27:33;17.70;72.70
32296;DHT22;18781;51.550;5.418;2023-08-08T06:29:59;17.70;72.80
32296;DHT22;18781;51.550;5.418;2023-08-08T06:32:24;17.80;72.80
32296;DHT22;18781;51.550;5.418;2023-08-08T06:34:50;17.80;72.90
32296;DHT22;18781;51.550;5.418;2023-08-08T06:37:15;17.80;73.00
32296;DHT22;18781;51.550;5.418;2023-08-08T06:39:41;17.90;73.00
32296;DHT22;18781;51.550;5.418;2023-08-08T06:42:07;17.90;72.90
32296;DHT22;18781;51.550;5.418;2023-08-08T06:44:40;17.90;72.90
32296;DHT22;18781;51.550;5.418;2023-08-08T06:47:06;18.00;73.00
32296;DHT22;18781;51.550;5.418;2023-08-08T06:49:31;18.00;72.90
32296;DHT22;18781;51.550;5.418;2023-08-08T06:51:57;18.10;72.80
32296;DHT22;18781;51.550;5.418;2023-08-08T06:54:22;18.10;72.70
32296;DHT22;18781;51.550;5.418;2023-08-08T06:56:48;18.10;72.80
32296;DHT22;18781;51.550;5.418;2023-08-08T06:59:13;18.20;72.80
32296;DHT22;18781;51.550;5.418;2023-08-08T07:01:39;18.20;72.70
32296;DHT22;18781;51.550;5.418;2023-08-08T07:04:05;18.20;72.70
32296;DHT22;18781;51.550;5.418;2023-08-08T07:06:31;18.30;72.70
32296;DHT22;18781;51.550;5.418;2023-08-08T07:08:56;18.30;72.80
32296;DHT22;18781;51.550;5.418;2023-08-08T07:11:22;18.40;72.70
32296;DHT22;18781;51.550;5.418;2023-08-08T07:13:47;18.40;72.70
32296;DHT22;18781;51.550;5.418;2023-08-08T07:16:13;18.50;72.80
32296;DHT22;18781;51.550;5.418;2023-08-08T07:18:38;18.60;72.80
32296;DHT22;18781;51.550;5.418;2023-08-08T07:21:04;18.60;73.30
32296;DHT22;18781;51.550;5.418;2023-08-08T07:23:31;18.70;72.70
32296;DHT22;18781;51.550;5.418;2023-08-08T07:25:56;18.70;72.50
32296;DHT22;18781;51.550;5.418;2023-08-08T07:28:22;18.80;72.40
32296;DHT22;18781;51.550;5.418;2023-08-08T07:30:48;18.90;72.30
32296;DHT22;18781;51.550;5.418;2023-08-08T07:33:14;19.00;72.20
32296;DHT22;18781;51.550;5.418;2023-08-08T07:35:39;19.00;71.80
32296;DHT22;18781;51.550;5.418;2023-08-08T07:38:05;19.10;71.70
32296;DHT22;18781;51.550;5.418;2023-08-08T07:40:30;19.10;71.30
32296;DHT22;18781;51.550;5.418;2023-08-08T07:42:56;19.20;71.30
32296;DHT22;18781;51.550;5.418;2023-08-08T07:45:22;19.20;71.10
32296;DHT22;18781;51.550;5.418;2023-08-08T07:47:47;19.30;70.90
32296;DHT22;18781;51.550;5.418;2023-08-08T07:50:13;19.30;70.70
32296;DHT22;18781;51.550;5.418;2023-08-08T07:52:40;19.40;70.40
32296;DHT22;18781;51.550;5.418;2023-08-08T07:55:06;19.40;70.20
32296;DHT22;18781;51.550;5.418;2023-08-08T07:57:32;19.40;70.10
32296;DHT22;18781;51.550;5.418;2023-08-08T08:00:02;19.50;70.20
32296;DHT22;18781;51.550;5.418;2023-08-08T08:02:34;19.50;69.90
32296;DHT22;18781;51.550;5.418;2023-08-08T08:04:59;19.60;69.80
32296;DHT22;18781;51.550;5.418;2023-08-08T08:07:25;19.60;69.50
32296;DHT22;18781;51.550;5.418;2023-08-08T08:09:50;19.60;69.00
32296;DHT22;18781;51.550;5.418;2023-08-08T08:12:16;19.70;69.30
32296;DHT22;18781;51.550;5.418;2023-08-08T08:14:41;19.70;68.90
32296;DHT22;18781;51.550;5.418;2023-08-08T08:17:07;19.80;68.80
32296;DHT22;18781;51.550;5.418;2023-08-08T08:19:34;19.80;68.90
32296;DHT22;18781;51.550;5.418;2023-08-08T08:21:59;19.80;68.80
32296;DHT22;18781;51.550;5.418;2023-08-08T08:24:25;19.90;68.90
32296;DHT22;18781;51.550;5.418;2023-08-08T08:26:50;19.90;69.00
32296;DHT22;18781;51.550;5.418;2023-08-08T08:29:16;20.00;68.70
32296;DHT22;18781;51.550;5.418;2023-08-08T08:31:41;20.00;68.70
32296;DHT22;18781;51.550;5.418;2023-08-08T08:34:07;20.10;68.40
32296;DHT22;18781;51.550;5.418;2023-08-08T08:36:33;20.10;67.80
32296;DHT22;18781;51.550;5.418;2023-08-08T08:38:58;20.10;68.00
32296;DHT22;18781;51.550;5.418;2023-08-08T08:41:26;20.20;67.70
32296;DHT22;18781;51.550;5.418;2023-08-08T08:43:54;20.20;67.10
32296;DHT22;18781;51.550;5.418;2023-08-08T08:46:21;20.20;66.60
32296;DHT22;18781;51.550;5.418;2023-08-08T08:48:49;20.20;67.30
32296;DHT22;18781;51.550;5.418;2023-08-08T08:51:15;20.30;67.10
32296;DHT22;18781;51.550;5.418;2023-08-08T08:53:42;20.30;66.80
32296;DHT22;18781;51.550;5.418;2023-08-08T08:56:08;20.40;66.90
32296;DHT22;18781;51.550;5.418;2023-08-08T08:58:34;20.40;66.90
32296;DHT22;18781;51.550;5.418;2023-08-08T09:01:00;20.40;66.90
32296;DHT22;18781;51.550;5.418;2023-08-08T09:03:26;20.50;66.30
32296;DHT22;18781;51.550;5.418;2023-08-08T09:05:52;20.50;66.50
32296;DHT22;18781;51.550;5.418;2023-08-08T09:08:20;20.50;65.60
32296;DHT22;18781;51.550;5.418;2023-08-08T09:10:45;20.50;64.80
32296;DHT22;18781;51.550;5.418;2023-08-08T09:13:11;20.50;64.80
32296;DHT22;18781;51.550;5.418;2023-08-08T09:15:37;20.50;65.00
32296;DHT22;18781;51.550;5.418;2023-08-08T09:18:03;20.50;65.20
32296;DHT22;18781;51.550;5.418;2023-08-08T09:20:28;20.50;65.40
32296;DHT22;18781;51.550;5.418;2023-08-08T09:22:54;20.50;65.60
32296;DHT22;18781;51.550;5.418;2023-08-08T09:25:20;20.50;65.10
32296;DHT22;18781;51.550;5.418;2023-08-08T09:27:46;20.60;65.20
32296;DHT22;18781;51.550;5.418;2023-08-08T09:30:12;20.50;64.40
32296;DHT22;18781;51.550;5.418;2023-08-08T09:32:38;20.60;64.40
32296;DHT22;18781;51.550;5.418;2023-08-08T09:35:04;20.60;64.20
32296;DHT22;18781;51.550;5.418;2023-08-08T09:37:35;20.60;64.80
32296;DHT22;18781;51.550;5.418;2023-08-08T09:40:02;20.60;65.00
32296;DHT22;18781;51.550;5.418;2023-08-08T09:42:29;20.60;65.30
32296;DHT22;18781;51.550;5.418;2023-08-08T09:44:58;20.70;64.70
32296;DHT22;18781;51.550;5.418;2023-08-08T09:47:24;20.70;64.80
32296;DHT22;18781;51.550;5.418;2023-08-08T09:49:50;20.70;65.30
32296;DHT22;18781;51.550;5.418;2023-08-08T09:52:17;20.80;64.00
32296;DHT22;18781;51.550;5.418;2023-08-08T09:54:44;20.80;64.10
32296;DHT22;18781;51.550;5.418;2023-08-08T09:57:10;20.80;64.10
32296;DHT22;18781;51.550;5.418;2023-08-08T09:59:36;20.90;63.70
32296;DHT22;18781;51.550;5.418;2023-08-08T10:02:04;20.90;63.70
32296;DHT22;18781;51.550;5.418;2023-08-08T10:04:30;21.00;64.10
32296;DHT22;18781;51.550;5.418;2023-08-08T10:06:56;21.10;63.70
32296;DHT22;18781;51.550;5.418;2023-08-08T10:09:22;21.10;63.60
32296;DHT22;18781;51.550;5.418;2023-08-08T10:11:49;21.20;63.90
32296;DHT22;18781;51.550;5.418;2023-08-08T10:14:15;21.30;63.20
32296;DHT22;18781;51.550;5.418;2023-08-08T10:16:42;21.40;61.80
32296;DHT22;18781;51.550;5.418;2023-08-08T10:19:09;21.40;61.20
32296;DHT22;18781;51.550;5.418;2023-08-08T10:21:37;21.50;61.80
32296;DHT22;18781;51.550;5.418;2023-08-08T10:24:09;21.50;60.40
32296;DHT22;18781;51.550;5.418;2023-08-08T10:26:58;21.50;61.00
32296;DHT22;18781;51.550;5.418;2023-08-08T10:29:26;21.50;60.50
32296;DHT22;18781;51.550;5.418;2023-08-08T10:32:00;21.50;59.80
32296;DHT22;18781;51.550;5.418;2023-08-08T10:34:43;21.50;59.40
32296;DHT22;18781;51.550;5.418;2023-08-08T10:37:16;21.50;59.80
32296;DHT22;18781;51.550;5.418;2023-08-08T10:39:53;21.50;59.50
32296;DHT22;18781;51.550;5.418;2023-08-08T10:42:20;21.40;59.80
32296;DHT22;18781;51.550;5.418;2023-08-08T10:44:56;21.50;60.30
32296;DHT22;18781;51.550;5.418;2023-08-08T10:47:36;21.50;60.60
32296;DHT22;18781;51.550;5.418;2023-08-08T10:50:06;21.50;60.20
32296;DHT22;18781;51.550;5.418;2023-08-08T10:52:33;21.50;59.90
32296;DHT22;18781;51.550;5.418;2023-08-08T10:55:03;21.50;60.30
32296;DHT22;18781;51.550;5.418;2023-08-08T10:57:30;21.50;60.30
32296;DHT22;18781;51.550;5.418;2023-08-08T11:00:16;21.60;60.00
32296;DHT22;18781;51.550;5.418;2023-08-08T11:02:42;21.60;60.20
32296;DHT22;18781;51.550;5.418;2023-08-08T11:05:09;21.60;61.20
32296;DHT22;18781;51.550;5.418;2023-08-08T11:07:35;21.60;60.70
32296;DHT22;18781;51.550;5.418;2023-08-08T11:10:03;21.70;61.00
32296;DHT22;18781;51.550;5.418;2023-08-08T11:12:28;21.70;61.10
32296;DHT22;18781;51.550;5.418;2023-08-08T11:14:54;21.80;61.10
32296;DHT22;18781;51.550;5.418;2023-08-08T11:17:20;21.80;61.10
32296;DHT22;18781;51.550;5.418;2023-08-08T11:19:46;21.90;60.80
32296;DHT22;18781;51.550;5.418;2023-08-08T11:22:11;21.90;60.20
32296;DHT22;18781;51.550;5.418;2023-08-08T11:24:37;22.00;60.40
32296;DHT22;18781;51.550;5.418;2023-08-08T11:27:03;22.00;60.50
32296;DHT22;18781;51.550;5.418;2023-08-08T11:29:28;22.10;60.30
32296;DHT22;18781;51.550;5.418;2023-08-08T11:31:57;22.20;60.60
32296;DHT22;18781;51.550;5.418;2023-08-08T11:34:24;22.20;59.50
32296;DHT22;18781;51.550;5.418;2023-08-08T11:36:50;22.30;59.80
32296;DHT22;18781;51.550;5.418;2023-08-08T11:39:16;22.40;59.40
32296;DHT22;18781;51.550;5.418;2023-08-08T11:41:42;22.40;58.60
32296;DHT22;18781;51.550;5.418;2023-08-08T11:44:08;22.50;58.00
32296;DHT22;18781;51.550;5.418;2023-08-08T11:46:34;22.50;58.60
32296;DHT22;18781;51.550;5.418;2023-08-08T11:49:04;22.60;57.60
32296;DHT22;18781;51.550;5.418;2023-08-08T11:51:32;22.60;57.70
32296;DHT22;18781;51.550;5.418;2023-08-08T11:54:00;22.60;57.20
32296;DHT22;18781;51.550;5.418;2023-08-08T11:56:26;22.60;58.00
32296;DHT22;18781;51.550;5.418;2023-08-08T11:58:52;22.60;57.50
32296;DHT22;18781;51.550;5.418;2023-08-08T12:01:22;22.60;57.60
32296;DHT22;18781;51.550;5.418;2023-08-08T12:03:48;22.60;57.00
32296;DHT22;18781;51.550;5.418;2023-08-08T12:06:15;22.60;56.40
32296;DHT22;18781;51.550;5.418;2023-08-08T12:08:42;22.60;56.40
32296;DHT22;18781;51.550;5.418;2023-08-08T12:11:09;22.60;56.10
32296;DHT22;18781;51.550;5.418;2023-08-08T12:13:37;22.60;56.00
32296;DHT22;18781;51.550;5.418;2023-08-08T12:16:12;22.60;56.40
32296;DHT22;18781;51.550;5.418;2023-08-08T12:18:38;22.60;56.40
32296;DHT22;18781;51.550;5.418;2023-08-08T12:21:05;22.60;55.90
32296;DHT22;18781;51.550;5.418;2023-08-08T12:23:31;22.60;56.10
32296;DHT22;18781;51.550;5.418;2023-08-08T12:25:58;22.60;55.40
32296;DHT22;18781;51.550;5.418;2023-08-08T12:28:24;22.60;54.40
32296;DHT22;18781;51.550;5.418;2023-08-08T12:30:50;22.60;54.60
32296;DHT22;18781;51.550;5.418;2023-08-08T12:33:15;22.60;55.10
32296;DHT22;18781;51.550;5.418;2023-08-08T12:35:41;22.60;53.40
32296;DHT22;18781;51.550;5.418;2023-08-08T12:38:07;22.70;54.80
32296;DHT22;18781;51.550;5.418;2023-08-08T12:40:32;22.70;54.00
32296;DHT22;18781;51.550;5.418;2023-08-08T12:42:59;22.80;53.90
32296;DHT22;18781;51.550;5.418;2023-08-08T12:45:25;22.90;53.50
32296;DHT22;18781;51.550;5.418;2023-08-08T12:47:50;22.90;54.00
32296;DHT22;18781;51.550;5.418;2023-08-08T12:50:16;23.00;53.90
32296;DHT22;18781;51.550;5.418;2023-08-08T12:52:41;23.10;53.70
32296;DHT22;18781;51.550;5.418;2023-08-08T12:55:07;23.20;53.80
32296;DHT22;18781;51.550;5.418;2023-08-08T12:57:34;23.20;53.10
32296;DHT22;18781;51.550;5.418;2023-08-08T13:00:00;23.30;52.90
32296;DHT22;18781;51.550;5.418;2023-08-08T13:02:25;23.40;53.00
32296;DHT22;18781;51.550;5.418;2023-08-08T13:04:51;23.40;52.40
32296;DHT22;18781;51.550;5.418;2023-08-08T13:07:16;23.50;52.20
32296;DHT22;18781;51.550;5.418;2023-08-08T13:09:42;23.50;52.60
32296;DHT22;18781;51.550;5.418;2023-08-08T13:12:08;23.50;52.10
32296;DHT22;18781;51.550;5.418;2023-08-08T13:14:33;23.60;51.60
32296;DHT22;18781;51.550;5.418;2023-08-08T13:16:59;23.60;51.50
32296;DHT22;18781;51.550;5.418;2023-08-08T13:19:25;23.70;51.10
32296;DHT22;18781;51.550;5.418;2023-08-08T13:21:52;23.70;51.80
32296;DHT22;18781;51.550;5.418;2023-08-08T13:24:18;23.70;52.00
32296;DHT22;18781;51.550;5.418;2023-08-08T13:26:43;23.80;52.00
32296;DHT22;18781;51.550;5.418;2023-08-08T13:29:09;23.80;51.70
32296;DHT22;18781;51.550;5.418;2023-08-08T13:31:35;23.90;50.90
32296;DHT22;18781;51.550;5.418;2023-08-08T13:34:00;23.90;51.30
32296;DHT22;18781;51.550;5.418;2023-08-08T13:36:26;24.00;51.80
32296;DHT22;18781;51.550;5.418;2023-08-08T13:38:51;24.00;51.40
32296;DHT22;18781;51.550;5.418;2023-08-08T13:41:17;24.10;50.10
32296;DHT22;18781;51.550;5.418;2023-08-08T13:43:43;24.20;50.10
32296;DHT22;18781;51.550;5.418;2023-08-08T13:46:08;24.20;50.70
32296;DHT22;18781;51.550;5.418;2023-08-08T13:48:35;24.30;50.00
32296;DHT22;18781;51.550;5.418;2023-08-08T13:51:02;24.30;50.10
32296;DHT22;18781;51.550;5.418;2023-08-08T13:53:28;24.30;49.50
32296;DHT22;18781;51.550;5.418;2023-08-08T13:55:54;24.40;49.80
32296;DHT22;18781;51.550;5.418;2023-08-08T13:58:19;24.40;49.30
32296;DHT22;18781;51.550;5.418;2023-08-08T14:00:48;24.40;49.70
32296;DHT22;18781;51.550;5.418;2023-08-08T14:03:13;24.40;49.60
32296;DHT22;18781;51.550;5.418;2023-08-08T14:05:39;24.40;49.00
32296;DHT22;18781;51.550;5.418;2023-08-08T14:08:04;24.40;48.80
32296;DHT22;18781;51.550;5.418;2023-08-08T14:10:30;24.40;49.10
32296;DHT22;18781;51.550;5.418;2023-08-08T14:12:56;24.40;49.00
32296;DHT22;18781;51.550;5.418;2023-08-08T14:15:22;24.40;49.10
32296;DHT22;18781;51.550;5.418;2023-08-08T14:17:47;24.40;49.40
32296;DHT22;18781;51.550;5.418;2023-08-08T14:20:13;24.40;49.40
32296;DHT22;18781;51.550;5.418;2023-08-08T14:22:39;24.50;48.90
32296;DHT22;18781;51.550;5.418;2023-08-08T14:25:05;24.50;48.60
32296;DHT22;18781;51.550;5.418;2023-08-08T14:27:31;24.50;47.10
32296;DHT22;18781;51.550;5.418;2023-08-08T14:29:57;24.50;47.80
32296;DHT22;18781;51.550;5.418;2023-08-08T14:32:23;24.40;47.80
32296;DHT22;18781;51.550;5.418;2023-08-08T14:34:48;24.40;47.20
32296;DHT22;18781;51.550;5.418;2023-08-08T14:37:14;24.40;47.40
32296;DHT22;18781;51.550;5.418;2023-08-08T14:39:40;24.40;47.60
32296;DHT22;18781;51.550;5.418;2023-08-08T14:42:05;24.40;48.80
32296;DHT22;18781;51.550;5.418;2023-08-08T14:44:31;24.40;48.90
32296;DHT22;18781;51.550;5.418;2023-08-08T14:46:57;24.40;48.00
32296;DHT22;18781;51.550;5.418;2023-08-08T14:49:22;24.40;47.50
32296;DHT22;18781;51.550;5.418;2023-08-08T14:51:51;24.40;47.70
32296;DHT22;18781;51.550;5.418;2023-08-08T14:54:16;24.40;48.10
32296;DHT22;18781;51.550;5.418;2023-08-08T14:56:42;24.40;48.10
32296;DHT22;18781;51.550;5.418;2023-08-08T14:59:07;24.40;47.10
32296;DHT22;18781;51.550;5.418;2023-08-08T15:01:33;24.40;47.40
32296;DHT22;18781;51.550;5.418;2023-08-08T15:03:58;24.40;46.50
32296;DHT22;18781;51.550;5.418;2023-08-08T15:06:24;24.40;46.70
32296;DHT22;18781;51.550;5.418;2023-08-08T15:08:50;24.30;47.00
32296;DHT22;18781;51.550;5.418;2023-08-08T15:11:16;24.30;47.20
32296;DHT22;18781;51.550;5.418;2023-08-08T15:13:42;24.20;46.80
32296;DHT22;18781;51.550;5.418;2023-08-08T15:16:08;24.20;46.90
32296;DHT22;18781;51.550;5.418;2023-08-08T15:18:33;24.20;47.30
32296;DHT22;18781;51.550;5.418;2023-08-08T15:20:59;24.10;47.70
32296;DHT22;18781;51.550;5.418;2023-08-08T15:23:25;24.10;47.50
32296;DHT22;18781;51.550;5.418;2023-08-08T15:25:50;24.00;47.90